sensor_id;sensor_type;location;lat;lon;timestamp;temperature;humidity
981;DHT22;479;53.514;9.994;2023-05-10T00:00:57;14.00;63.90
981;DHT22;479;53.514;9.994;2023-05-10T00:03:24;13.90;64.50
981;DHT22;479;53.514;9.994;2023-05-10T00:05:51;13.90;65.20
981;DHT22;479;53.514;9.994;2023-05-10T00:08:20;13.90;65.80
981;DHT22;479;53.514;9.994;2023-05-10T00:10:53;13.80;66.60
981;DHT22;479;53.514;9.994;2023-05-10T00:13:43;13.80;67.30
981;DHT22;479;53.514;9.994;2023-05-10T00:16:10;13.80;68.40
981;DHT22;479;53.514;9.994;2023-05-10T00:18:38;13.80;69.20
981;DHT22;479;53.514;9.994;2023-05-10T00:21:06;13.80;70.00
981;DHT22;479;53.514;9.994;2023-05-10T00:23:34;13.70;71.20
981;DHT22;479;53.514;9.994;2023-05-10T00:26:01;13.70;72.20
981;DHT22;479;53.514;9.994;2023-05-10T00:28:28;13.70;73.50
981;DHT22;479;53.514;9.994;2023-05-10T00:30:56;13.60;75.00
981;DHT22;479;53.514;9.994;2023-05-10T00:33:22;13.60;76.70
981;DHT22;479;53.514;9.994;2023-05-10T00:35:49;13.60;77.90
981;DHT22;479;53.514;9.994;2023-05-10T00:38:16;13.60;79.90
981;DHT22;479;53.514;9.994;2023-05-10T00:40:45;13.50;81.50
981;DHT22;479;53.514;9.994;2023-05-10T00:43:19;13.50;82.20
981;DHT22;479;53.514;9.994;2023-05-10T00:45:46;13.50;84.10
981;DHT22;479;53.514;9.994;2023-05-10T00:48:13;13.50;85.60
981;DHT22;479;53.514;9.994;2023-05-10T00:50:40;13.40;87.60
981;DHT22;479;53.514;9.994;2023-05-10T00:53:07;13.40;89.70
981;DHT22;479;53.514;9.994;2023-05-10T00:55:36;13.30;90.80
981;DHT22;479;53.514;9.994;2023-05-10T00:58:04;13.30;91.90
981;DHT22;479;53.514;9.994;2023-05-10T01:00:32;13.20;92.70
981;DHT22;479;53.514;9.994;2023-05-10T01:02:59;13.20;93.40
981;DHT22;479;53.514;9.994;2023-05-10T01:05:27;13.20;94.10
981;DHT22;479;53.514;9.994;2023-05-10T01:07:54;13.10;94.70
981;DHT22;479;53.514;9.994;2023-05-10T01:10:21;13.10;95.30
981;DHT22;479;53.514;9.994;2023-05-10T01:12:47;13.10;95.80
981;DHT22;479;53.514;9.994;2023-05-10T01:15:16;13.00;96.20
981;DHT22;479;53.514;9.994;2023-05-10T01:17:45;13.00;96.70
981;DHT22;479;53.514;9.994;2023-05-10T01:20:13;13.00;97.10
981;DHT22;479;53.514;9.994;2023-05-10T01:23:24;12.90;97.60
981;DHT22;479;53.514;9.994;2023-05-10T01:26:16;12.90;98.30
981;DHT22;479;53.514;9.994;2023-05-10T01:29:14;12.90;98.30
981;DHT22;479;53.514;9.994;2023-05-10T01:32:12;12.80;98.60
981;DHT22;479;53.514;9.994;2023-05-10T01:34:46;12.80;98.90
981;DHT22;479;53.514;9.994;2023-05-10T01:37:20;12.80;99.10
981;DHT22;479;53.514;9.994;2023-05-10T01:39:52;12.80;99.30
981;DHT22;479;53.514;9.994;2023-05-10T01:42:26;12.80;99.50
981;DHT22;479;53.514;9.994;2023-05-10T01:45:05;12.80;99.60
981;DHT22;479;53.514;9.994;2023-05-10T01:47:40;12.80;99.70
981;DHT22;479;53.514;9.994;2023-05-10T01:50:15;12.80;99.70
981;DHT22;479;53.514;9.994;2023-05-10T01:52:49;12.70;99.90
981;DHT22;479;53.514;9.994;2023-05-10T01:55:23;12.70;99.90
981;DHT22;479;53.514;9.994;2023-05-10T01:57:58;12.70;99.90
981;DHT22;479;53.514;9.994;2023-05-10T02:00:27;12.70;99.90
981;DHT22;479;53.514;9.994;2023-05-10T02:02:57;12.60;99.90
981;DHT22;479;53.514;9.994;2023-05-10T02:05:24;12.60;99.90
981;DHT22;479;53.514;9.994;2023-05-10T02:07:53;12.60;99.90
981;DHT22;479;53.514;9.994;2023-05-10T02:10:21;12.60;99.90
981;DHT22;479;53.514;9.994;2023-05-10T02:12:48;12.60;99.90
981;DHT22;479;53.514;9.994;2023-05-10T02:15:19;12.60;99.90
981;DHT22;479;53.514;9.994;2023-05-10T02:17:47;12.50;99.90
981;DHT22;479;53.514;9.994;2023-05-10T02:20:16;12.50;99.90
981;DHT22;479;53.514;9.994;2023-05-10T02:22:47;12.50;99.90
981;DHT22;479;53.514;9.994;2023-05-10T02:25:16;12.50;99.90
981;DHT22;479;53.514;9.994;2023-05-10T02:27:44;12.40;99.90
981;DHT22;479;53.514;9.994;2023-05-10T02:30:13;12.40;99.90
981;DHT22;479;53.514;9.994;2023-05-10T02:32:41;12.30;99.90
981;DHT22;479;53.514;9.994;2023-05-10T02:35:09;12.30;99.90
981;DHT22;479;53.514;9.994;2023-05-10T02:37:38;12.30;99.90
981;DHT22;479;53.514;9.994;2023-05-10T02:40:07;12.30;99.90
981;DHT22;479;53.514;9.994;2023-05-10T02:42:37;12.30;99.90
981;DHT22;479;53.514;9.994;2023-05-10T02:45:08;12.20;99.90
981;DHT22;479;53.514;9.994;2023-05-10T02:47:37;12.20;99.90
981;DHT22;479;53.514;9.994;2023-05-10T02:50:05;12.20;99.90
981;DHT22;479;53.514;9.994;2023-05-10T02:52:40;12.20;99.90
981;DHT22;479;53.514;9.994;2023-05-10T02:55:09;12.20;99.90
981;DHT22;479;53.514;9.994;2023-05-10T02:57:42;12.20;99.90
981;DHT22;479;53.514;9.994;2023-05-10T03:00:10;12.20;99.90
981;DHT22;479;53.514;9.994;2023-05-10T03:02:37;12.10;99.90
981;DHT22;479;53.514;9.994;2023-05-10T03:05:05;12.10;99.90
981;DHT22;479;53.514;9.994;2023-05-10T03:07:32;12.10;99.90
981;DHT22;479;53.514;9.994;2023-05-10T03:10:01;12.10;99.90
981;DHT22;479;53.514;9.994;2023-05-10T03:12:38;12.10;99.90
981;DHT22;479;53.514;9.994;2023-05-10T03:15:19;12.10;99.90
981;DHT22;479;53.514;9.994;2023-05-10T03:17:55;12.00;99.90
981;DHT22;479;53.514;9.994;2023-05-10T03:20:26;12.10;99.90
981;DHT22;479;53.514;9.994;2023-05-10T03:23:02;12.10;99.90
981;DHT22;479;53.514;9.994;2023-05-10T03:25:32;12.10;99.90
981;DHT22;479;53.514;9.994;2023-05-10T03:28:02;12.10;99.90
981;DHT22;479;53.514;9.994;2023-05-10T03:30:31;12.10;99.90
981;DHT22;479;53.514;9.994;2023-05-10T03:33:04;12.10;99.90
981;DHT22;479;53.514;9.994;2023-05-10T03:35:31;12.10;99.90
981;DHT22;479;53.514;9.994;2023-05-10T03:37:58;12.00;99.90
981;DHT22;479;53.514;9.994;2023-05-10T03:40:26;12.00;99.90
981;DHT22;479;53.514;9.994;2023-05-10T03:42:55;12.00;99.90
981;DHT22;479;53.514;9.994;2023-05-10T03:45:22;12.10;99.90
981;DHT22;479;53.514;9.994;2023-05-10T03:47:49;12.00;99.90
981;DHT22;479;53.514;9.994;2023-05-10T03:50:16;12.00;99.90
981;DHT22;479;53.514;9.994;2023-05-10T03:52:43;12.00;99.90
981;DHT22;479;53.514;9.994;2023-05-10T03:55:11;12.10;99.90
981;DHT22;479;53.514;9.994;2023-05-10T03:57:38;12.10;99.90
981;DHT22;479;53.514;9.994;2023-05-10T04:00:08;12.00;99.90
981;DHT22;479;53.514;9.994;2023-05-10T04:02:42;12.10;99.90
981;DHT22;479;53.514;9.994;2023-05-10T04:05:13;12.10;99.90
981;DHT22;479;53.514;9.994;2023-05-10T04:07:40;12.10;99.90
981;DHT22;479;53.514;9.994;2023-05-10T04:10:08;12.00;99.90
981;DHT22;479;53.514;9.994;2023-05-10T04:12:35;12.10;99.90
981;DHT22;479;53.514;9.994;2023-05-10T04:15:02;12.10;99.90
981;DHT22;479;53.514;9.994;2023-05-10T04:17:30;12.10;99.90
981;DHT22;479;53.514;9.994;2023-05-10T04:19:57;12.10;99.90
981;DHT22;479;53.514;9.994;2023-05-10T04:22:24;12.10;99.90
981;DHT22;479;53.514;9.994;2023-05-10T04:24:51;12.20;99.90
981;DHT22;479;53.514;9.994;2023-05-10T04:27:18;12.20;99.90
981;DHT22;479;53.514;9.994;2023-05-10T04:29:45;12.20;99.90
981;DHT22;479;53.514;9.994;2023-05-10T04:32:12;12.20;99.90
981;DHT22;479;53.514;9.994;2023-05-10T04:34:40;12.20;99.90
981;DHT22;479;53.514;9.994;2023-05-10T04:37:07;12.20;99.90
981;DHT22;479;53.514;9.994;2023-05-10T04:39:34;12.30;99.90
981;DHT22;479;53.514;9.994;2023-05-10T04:42:01;12.30;99.90
981;DHT22;479;53.514;9.994;2023-05-10T04:44:31;12.30;99.90
981;DHT22;479;53.514;9.994;2023-05-10T04:46:59;12.30;99.90
981;DHT22;479;53.514;9.994;2023-05-10T04:49:27;12.40;99.90
981;DHT22;479;53.514;9.994;2023-05-10T04:51:56;12.50;99.90
981;DHT22;479;53.514;9.994;2023-05-10T04:54:23;12.50;99.90
981;DHT22;479;53.514;9.994;2023-05-10T04:56:50;12.60;99.90
981;DHT22;479;53.514;9.994;2023-05-10T04:59:17;12.60;99.90
981;DHT22;479;53.514;9.994;2023-05-10T05:01:44;12.70;99.90
981;DHT22;479;53.514;9.994;2023-05-10T05:04:11;12.80;99.90
981;DHT22;479;53.514;9.994;2023-05-10T05:06:38;12.80;99.90
981;DHT22;479;53.514;9.994;2023-05-10T05:09:06;12.90;99.90
981;DHT22;479;53.514;9.994;2023-05-10T05:11:33;13.00;99.90
981;DHT22;479;53.514;9.994;2023-05-10T05:14:00;13.00;99.90
981;DHT22;479;53.514;9.994;2023-05-10T05:16:26;13.10;99.90
981;DHT22;479;53.514;9.994;2023-05-10T05:18:53;13.10;99.90
981;DHT22;479;53.514;9.994;2023-05-10T05:21:21;13.10;99.90
981;DHT22;479;53.514;9.994;2023-05-10T05:23:49;13.20;99.90
981;DHT22;479;53.514;9.994;2023-05-10T05:26:17;13.30;99.90
981;DHT22;479;53.514;9.994;2023-05-10T05:28:44;13.50;99.90
981;DHT22;479;53.514;9.994;2023-05-10T05:31:11;13.50;99.90
981;DHT22;479;53.514;9.994;2023-05-10T05:33:39;13.50;99.90
981;DHT22;479;53.514;9.994;2023-05-10T05:36:06;13.60;99.90
981;DHT22;479;53.514;9.994;2023-05-10T05:38:33;13.70;99.90
981;DHT22;479;53.514;9.994;2023-05-10T05:41:00;13.70;99.90
981;DHT22;479;53.514;9.994;2023-05-10T05:43:28;13.80;99.90
981;DHT22;479;53.514;9.994;2023-05-10T05:45:55;14.00;99.90
981;DHT22;479;53.514;9.994;2023-05-10T05:48:23;14.10;99.90
981;DHT22;479;53.514;9.994;2023-05-10T05:50:54;14.20;99.90
981;DHT22;479;53.514;9.994;2023-05-10T05:53:21;14.40;99.20
981;DHT22;479;53.514;9.994;2023-05-10T05:55:52;14.40;98.70
981;DHT22;479;53.514;9.994;2023-05-10T05:58:19;14.40;98.30
981;DHT22;479;53.514;9.994;2023-05-10T06:00:48;14.40;98.50
981;DHT22;479;53.514;9.994;2023-05-10T06:03:15;14.70;98.70
981;DHT22;479;53.514;9.994;2023-05-10T06:05:42;14.80;96.90
981;DHT22;479;53.514;9.994;2023-05-10T06:08:08;14.80;96.20
981;DHT22;479;53.514;9.994;2023-05-10T06:10:35;15.00;95.70
981;DHT22;479;53.514;9.994;2023-05-10T06:13:02;15.30;94.80
981;DHT22;479;53.514;9.994;2023-05-10T06:15:30;15.30;94.10
981;DHT22;479;53.514;9.994;2023-05-10T06:17:59;15.40;93.60
981;DHT22;479;53.514;9.994;2023-05-10T06:20:26;15.40;93.50
981;DHT22;479;53.514;9.994;2023-05-10T06:22:53;15.50;93.30
981;DHT22;479;53.514;9.994;2023-05-10T06:25:20;15.50;93.00
981;DHT22;479;53.514;9.994;2023-05-10T06:27:47;15.50;93.10
981;DHT22;479;53.514;9.994;2023-05-10T06:30:14;15.60;92.40
981;DHT22;479;53.514;9.994;2023-05-10T06:32:41;15.30;93.20
981;DHT22;479;53.514;9.994;2023-05-10T06:35:10;15.30;93.70
981;DHT22;479;53.514;9.994;2023-05-10T06:37:37;15.20;94.00
981;DHT22;479;53.514;9.994;2023-05-10T06:40:06;15.10;94.60
981;DHT22;479;53.514;9.994;2023-05-10T06:42:34;15.10;94.80
981;DHT22;479;53.514;9.994;2023-05-10T06:45:03;15.10;95.10
981;DHT22;479;53.514;9.994;2023-05-10T06:47:31;15.30;95.80
981;DHT22;479;53.514;9.994;2023-05-10T06:49:58;15.50;95.70
981;DHT22;479;53.514;9.994;2023-05-10T06:52:26;15.70;94.80
981;DHT22;479;53.514;9.994;2023-05-10T06:54:54;15.80;93.70
981;DHT22;479;53.514;9.994;2023-05-10T06:57:21;16.00;94.10
981;DHT22;479;53.514;9.994;2023-05-10T06:59:47;16.20;93.70
981;DHT22;479;53.514;9.994;2023-05-10T07:02:14;16.60;92.80
981;DHT22;479;53.514;9.994;2023-05-10T07:04:42;16.90;91.40
981;DHT22;479;53.514;9.994;2023-05-10T07:07:09;16.80;89.80
981;DHT22;479;53.514;9.994;2023-05-10T07:09:37;16.90;88.40
981;DHT22;479;53.514;9.994;2023-05-10T07:12:04;16.90;85.70
981;DHT22;479;53.514;9.994;2023-05-10T07:14:31;17.20;83.40
981;DHT22;479;53.514;9.994;2023-05-10T07:16:59;17.60;83.20
981;DHT22;479;53.514;9.994;2023-05-10T07:19:26;17.70;81.50
981;DHT22;479;53.514;9.994;2023-05-10T07:21:54;17.50;78.70
981;DHT22;479;53.514;9.994;2023-05-10T07:24:21;17.20;79.40
981;DHT22;479;53.514;9.994;2023-05-10T07:26:50;17.10;80.00
981;DHT22;479;53.514;9.994;2023-05-10T07:29:17;17.00;81.20
981;DHT22;479;53.514;9.994;2023-05-10T07:31:44;17.00;79.90
981;DHT22;479;53.514;9.994;2023-05-10T07:34:11;16.80;81.10
981;DHT22;479;53.514;9.994;2023-05-10T07:36:38;16.70;82.50
981;DHT22;479;53.514;9.994;2023-05-10T07:39:04;16.70;82.10
981;DHT22;479;53.514;9.994;2023-05-10T07:41:32;16.60;82.80
981;DHT22;479;53.514;9.994;2023-05-10T07:44:00;16.60;83.70
981;DHT22;479;53.514;9.994;2023-05-10T07:46:27;16.70;84.30
981;DHT22;479;53.514;9.994;2023-05-10T07:48:54;16.70;83.20
981;DHT22;479;53.514;9.994;2023-05-10T07:51:21;16.70;84.10
981;DHT22;479;53.514;9.994;2023-05-10T07:53:51;16.60;84.10
981;DHT22;479;53.514;9.994;2023-05-10T07:56:23;16.50;85.60
981;DHT22;479;53.514;9.994;2023-05-10T07:58:52;16.50;86.00
981;DHT22;479;53.514;9.994;2023-05-10T08:01:20;16.50;86.70
981;DHT22;479;53.514;9.994;2023-05-10T08:03:47;16.40;85.60
981;DHT22;479;53.514;9.994;2023-05-10T08:06:15;16.50;87.20
981;DHT22;479;53.514;9.994;2023-05-10T08:08:41;16.60;88.60
981;DHT22;479;53.514;9.994;2023-05-10T08:11:09;16.70;87.10
981;DHT22;479;53.514;9.994;2023-05-10T08:13:35;16.70;88.60
981;DHT22;479;53.514;9.994;2023-05-10T08:16:02;16.80;88.60
981;DHT22;479;53.514;9.994;2023-05-10T08:18:30;17.00;87.80
981;DHT22;479;53.514;9.994;2023-05-10T08:20:57;17.10;87.50
981;DHT22;479;53.514;9.994;2023-05-10T08:23:24;17.20;85.50
981;DHT22;479;53.514;9.994;2023-05-10T08:25:51;17.10;85.90
981;DHT22;479;53.514;9.994;2023-05-10T08:28:18;17.10;85.10
981;DHT22;479;53.514;9.994;2023-05-10T08:30:45;17.20;84.60
981;DHT22;479;53.514;9.994;2023-05-10T08:33:12;17.40;83.80
981;DHT22;479;53.514;9.994;2023-05-10T08:35:40;17.50;83.40
981;DHT22;479;53.514;9.994;2023-05-10T08:38:08;17.50;82.10
981;DHT22;479;53.514;9.994;2023-05-10T08:40:35;17.40;83.00
981;DHT22;479;53.514;9.994;2023-05-10T08:43:06;17.60;83.30
981;DHT22;479;53.514;9.994;2023-05-10T08:45:37;17.60;83.30
981;DHT22;479;53.514;9.994;2023-05-10T08:48:05;17.70;82.70
981;DHT22;479;53.514;9.994;2023-05-10T08:50:35;17.60;84.10
981;DHT22;479;53.514;9.994;2023-05-10T08:53:05;17.90;81.40
981;DHT22;479;53.514;9.994;2023-05-10T08:55:32;17.90;80.30
981;DHT22;479;53.514;9.994;2023-05-10T08:58:02;18.00;80.40
981;DHT22;479;53.514;9.994;2023-05-10T09:00:30;18.10;79.80
981;DHT22;479;53.514;9.994;2023-05-10T09:02:57;18.00;81.50
981;DHT22;479;53.514;9.994;2023-05-10T09:05:25;17.90;81.80
981;DHT22;479;53.514;9.994;2023-05-10T09:07:52;17.90;83.20
981;DHT22;479;53.514;9.994;2023-05-10T09:10:20;18.00;85.20
981;DHT22;479;53.514;9.994;2023-05-10T09:12:48;17.90;86.50
981;DHT22;479;53.514;9.994;2023-05-10T09:15:16;17.90;86.80
981;DHT22;479;53.514;9.994;2023-05-10T09:17:45;17.80;88.40
981;DHT22;479;53.514;9.994;2023-05-10T09:20:13;17.70;90.10
981;DHT22;479;53.514;9.994;2023-05-10T09:22:40;17.70;91.60
981;DHT22;479;53.514;9.994;2023-05-10T09:25:08;17.60;90.60
981;DHT22;479;53.514;9.994;2023-05-10T09:27:37;17.50;91.30
981;DHT22;479;53.514;9.994;2023-05-10T09:30:05;17.20;94.20
981;DHT22;479;53.514;9.994;2023-05-10T09:32:36;17.20;97.50
981;DHT22;479;53.514;9.994;2023-05-10T09:35:08;17.00;99.90
981;DHT22;479;53.514;9.994;2023-05-10T09:37:35;16.70;99.90
981;DHT22;479;53.514;9.994;2023-05-10T09:40:05;16.60;99.90
981;DHT22;479;53.514;9.994;2023-05-10T09:42:33;16.30;99.90
981;DHT22;479;53.514;9.994;2023-05-10T09:45:03;16.10;99.90
981;DHT22;479;53.514;9.994;2023-05-10T09:47:37;16.00;99.90
981;DHT22;479;53.514;9.994;2023-05-10T09:50:06;15.80;99.90
981;DHT22;479;53.514;9.994;2023-05-10T09:52:46;15.70;99.90
981;DHT22;479;53.514;9.994;2023-05-10T09:55:13;15.70;99.90
981;DHT22;479;53.514;9.994;2023-05-10T09:57:41;15.60;99.90
981;DHT22;479;53.514;9.994;2023-05-10T10:00:11;15.40;99.90
981;DHT22;479;53.514;9.994;2023-05-10T10:02:45;15.40;99.90
981;DHT22;479;53.514;9.994;2023-05-10T10:05:16;15.10;99.90
981;DHT22;479;53.514;9.994;2023-05-10T10:07:44;15.10;99.90
981;DHT22;479;53.514;9.994;2023-05-10T10:10:11;15.00;99.90
981;DHT22;479;53.514;9.994;2023-05-10T10:12:40;14.90;99.90
981;DHT22;479;53.514;9.994;2023-05-10T10:15:37;14.80;99.90
981;DHT22;479;53.514;9.994;2023-05-10T10:18:05;14.80;99.90
981;DHT22;479;53.514;9.994;2023-05-10T10:20:32;14.80;99.90
981;DHT22;479;53.514;9.994;2023-05-10T10:22:59;14.80;99.90
981;DHT22;479;53.514;9.994;2023-05-10T10:25:28;14.70;99.90
981;DHT22;479;53.514;9.994;2023-05-10T10:28:06;14.60;99.90
981;DHT22;479;53.514;9.994;2023-05-10T10:30:43;14.50;99.90
981;DHT22;479;53.514;9.994;2023-05-10T10:33:39;14.50;99.90
981;DHT22;479;53.514;9.994;2023-05-10T10:36:07;14.70;99.90
981;DHT22;479;53.514;9.994;2023-05-10T10:41:30;14.80;99.90
981;DHT22;479;53.514;9.994;2023-05-10T10:44:25;14.90;99.90
981;DHT22;479;53.514;9.994;2023-05-10T10:49:50;14.80;99.90
981;DHT22;479;53.514;9.994;2023-05-10T10:52:25;14.60;99.90
981;DHT22;479;53.514;9.994;2023-05-10T10:55:01;14.50;99.90
981;DHT22;479;53.514;9.994;2023-05-10T10:57:32;14.60;99.90
981;DHT22;479;53.514;9.994;2023-05-10T11:00:18;14.60;99.90
981;DHT22;479;53.514;9.994;2023-05-10T11:02:47;14.70;99.90
981;DHT22;479;53.514;9.994;2023-05-10T11:05:45;14.70;99.90
981;DHT22;479;53.514;9.994;2023-05-10T11:08:19;14.80;99.90
981;DHT22;479;53.514;9.994;2023-05-10T11:10:53;14.90;99.90
981;DHT22;479;53.514;9.994;2023-05-10T11:13:28;15.00;99.90
981;DHT22;479;53.514;9.994;2023-05-10T11:15:56;15.00;99.90
981;DHT22;479;53.514;9.994;2023-05-10T11:18:27;15.00;99.90
981;DHT22;479;53.514;9.994;2023-05-10T11:20:57;15.10;99.90
981;DHT22;479;53.514;9.994;2023-05-10T11:23:30;15.30;99.90
981;DHT22;479;53.514;9.994;2023-05-10T11:25:58;15.30;99.90
981;DHT22;479;53.514;9.994;2023-05-10T11:28:26;15.40;99.90
981;DHT22;479;53.514;9.994;2023-05-10T11:30:54;15.40;99.90
981;DHT22;479;53.514;9.994;2023-05-10T11:33:22;15.40;99.90
981;DHT22;479;53.514;9.994;2023-05-10T11:35:50;15.40;99.90
981;DHT22;479;53.514;9.994;2023-05-10T11:38:20;15.40;99.90
981;DHT22;479;53.514;9.994;2023-05-10T11:40:51;15.10;99.90
981;DHT22;479;53.514;9.994;2023-05-10T11:43:18;15.00;99.90
981;DHT22;479;53.514;9.994;2023-05-10T11:45:45;14.90;99.90
981;DHT22;479;53.514;9.994;2023-05-10T11:48:12;14.90;99.90
981;DHT22;479;53.514;9.994;2023-05-10T11:50:39;14.90;99.90
981;DHT22;479;53.514;9.994;2023-05-10T11:53:10;14.80;99.90
981;DHT22;479;53.514;9.994;2023-05-10T11:55:37;14.90;99.90
981;DHT22;479;53.514;9.994;2023-05-10T11:58:04;14.90;99.90
981;DHT22;479;53.514;9.994;2023-05-10T12:00:31;14.90;99.90
981;DHT22;479;53.514;9.994;2023-05-10T12:03:00;14.90;99.90
981;DHT22;479;53.514;9.994;2023-05-10T12:05:27;14.90;99.90
981;DHT22;479;53.514;9.994;2023-05-10T12:08:14;15.10;99.90
981;DHT22;479;53.514;9.994;2023-05-10T12:10:41;15.20;99.90
981;DHT22;479;53.514;9.994;2023-05-10T12:13:12;15.40;99.90
981;DHT22;479;53.514;9.994;2023-05-10T12:15:41;15.30;99.90
981;DHT22;479;53.514;9.994;2023-05-10T12:18:09;15.40;99.90
981;DHT22;479;53.514;9.994;2023-05-10T12:20:37;15.40;99.90
981;DHT22;479;53.514;9.994;2023-05-10T12:23:04;15.50;99.90
981;DHT22;479;53.514;9.994;2023-05-10T12:25:35;15.50;99.90
981;DHT22;479;53.514;9.994;2023-05-10T12:28:04;15.60;99.90
981;DHT22;479;53.514;9.994;2023-05-10T12:30:32;15.60;99.90
981;DHT22;479;53.514;9.994;2023-05-10T12:33:00;15.60;99.90
981;DHT22;479;53.514;9.994;2023-05-10T12:35:30;15.60;99.90
981;DHT22;479;53.514;9.994;2023-05-10T12:37:57;15.70;99.90
981;DHT22;479;53.514;9.994;2023-05-10T12:40:24;15.60;99.90
981;DHT22;479;53.514;9.994;2023-05-10T12:42:53;15.70;99.90
981;DHT22;479;53.514;9.994;2023-05-10T12:45:19;15.70;99.90
981;DHT22;479;53.514;9.994;2023-05-10T12:47:47;15.90;99.90
981;DHT22;479;53.514;9.994;2023-05-10T12:50:14;16.00;99.90
981;DHT22;479;53.514;9.994;2023-05-10T12:52:41;16.00;99.90
981;DHT22;479;53.514;9.994;2023-05-10T12:55:08;16.20;99.90
981;DHT22;479;53.514;9.994;2023-05-10T12:57:35;16.10;99.90
981;DHT22;479;53.514;9.994;2023-05-10T13:00:05;16.10;99.90
981;DHT22;479;53.514;9.994;2023-05-10T13:02:32;16.00;99.90
981;DHT22;479;53.514;9.994;2023-05-10T13:04:59;16.00;99.90
981;DHT22;479;53.514;9.994;2023-05-10T13:07:26;15.90;99.90
981;DHT22;479;53.514;9.994;2023-05-10T13:09:53;16.00;99.90
981;DHT22;479;53.514;9.994;2023-05-10T13:12:20;16.10;99.90
981;DHT22;479;53.514;9.994;2023-05-10T13:14:47;16.20;99.90
981;DHT22;479;53.514;9.994;2023-05-10T13:17:15;16.40;99.90
981;DHT22;479;53.514;9.994;2023-05-10T13:19:42;16.50;99.90
981;DHT22;479;53.514;9.994;2023-05-10T13:22:09;16.60;99.90
981;DHT22;479;53.514;9.994;2023-05-10T13:24:36;16.70;99.90
981;DHT22;479;53.514;9.994;2023-05-10T13:27:03;16.70;99.90
981;DHT22;479;53.514;9.994;2023-05-10T13:29:30;16.90;99.90
981;DHT22;479;53.514;9.994;2023-05-10T13:31:57;16.90;99.90
981;DHT22;479;53.514;9.994;2023-05-10T13:34:26;17.00;99.90
981;DHT22;479;53.514;9.994;2023-05-10T13:36:53;16.90;99.90
981;DHT22;479;53.514;9.994;2023-05-10T13:39:21;16.90;99.90
981;DHT22;479;53.514;9.994;2023-05-10T13:41:48;16.90;99.90
981;DHT22;479;53.514;9.994;2023-05-10T13:44:15;16.90;99.90
981;DHT22;479;53.514;9.994;2023-05-10T13:46:42;16.90;99.90
981;DHT22;479;53.514;9.994;2023-05-10T13:49:10;16.80;99.90
981;DHT22;479;53.514;9.994;2023-05-10T13:51:38;16.70;99.90
981;DHT22;479;53.514;9.994;2023-05-10T13:54:05;16.80;99.90
981;DHT22;479;53.514;9.994;2023-05-10T13:56:32;16.90;99.90
981;DHT22;479;53.514;9.994;2023-05-10T13:59:00;17.00;99.90
981;DHT22;479;53.514;9.994;2023-05-10T14:01:27;17.10;99.90
981;DHT22;479;53.514;9.994;2023-05-10T14:03:54;17.40;99.90
981;DHT22;479;53.514;9.994;2023-05-10T14:06:21;17.30;99.90
981;DHT22;479;53.514;9.994;2023-05-10T14:08:49;17.40;99.90
981;DHT22;479;53.514;9.994;2023-05-10T14:11:16;17.60;99.90
981;DHT22;479;53.514;9.994;2023-05-10T14:13:43;17.50;99.90
981;DHT22;479;53.514;9.994;2023-05-10T14:16:10;17.40;99.90
981;DHT22;479;53.514;9.994;2023-05-10T14:18:37;17.40;99.90
981;DHT22;479;53.514;9.994;2023-05-10T14:21:04;17.60;99.90
981;DHT22;479;53.514;9.994;2023-05-10T14:23:31;17.50;99.90
981;DHT22;479;53.514;9.994;2023-05-10T14:25:59;17.40;99.90
981;DHT22;479;53.514;9.994;2023-05-10T14:28:26;17.40;99.90
981;DHT22;479;53.514;9.994;2023-05-10T14:30:53;17.50;99.90
981;DHT22;479;53.514;9.994;2023-05-10T14:33:19;17.50;99.90
981;DHT22;479;53.514;9.994;2023-05-10T14:35:47;17.50;99.90
981;DHT22;479;53.514;9.994;2023-05-10T14:38:14;17.50;99.90
981;DHT22;479;53.514;9.994;2023-05-10T14:40:41;17.40;99.90
981;DHT22;479;53.514;9.994;2023-05-10T14:43:10;17.30;99.90
981;DHT22;479;53.514;9.994;2023-05-10T14:45:37;17.30;99.90
981;DHT22;479;53.514;9.994;2023-05-10T14:48:04;17.30;99.90
981;DHT22;479;53.514;9.994;2023-05-10T14:50:31;17.10;99.90
981;DHT22;479;53.514;9.994;2023-05-10T14:52:58;17.10;99.90
981;DHT22;479;53.514;9.994;2023-05-10T14:55:25;17.10;99.90
981;DHT22;479;53.514;9.994;2023-05-10T14:57:52;17.10;99.90
981;DHT22;479;53.514;9.994;2023-05-10T15:00:21;17.20;99.90
981;DHT22;479;53.514;9.994;2023-05-10T15:02:48;17.30;99.90
981;DHT22;479;53.514;9.994;2023-05-10T15:05:16;17.40;99.90
981;DHT22;479;53.514;9.994;2023-05-10T15:07:42;17.40;99.90
981;DHT22;479;53.514;9.994;2023-05-10T15:10:09;17.50;99.90
981;DHT22;479;53.514;9.994;2023-05-10T15:12:37;17.50;99.90
981;DHT22;479;53.514;9.994;2023-05-10T15:15:05;17.60;99.90
981;DHT22;479;53.514;9.994;2023-05-10T15:17:36;17.60;99.90
981;DHT22;479;53.514;9.994;2023-05-10T15:20:04;17.70;99.90
981;DHT22;479;53.514;9.994;2023-05-10T15:22:31;17.60;99.90
981;DHT22;479;53.514;9.994;2023-05-10T15:24:58;17.60;99.90
981;DHT22;479;53.514;9.994;2023-05-10T15:27:25;17.40;99.90
981;DHT22;479;53.514;9.994;2023-05-10T15:29:52;17.20;99.90
981;DHT22;479;53.514;9.994;2023-05-10T15:32:19;17.20;99.90
981;DHT22;479;53.514;9.994;2023-05-10T15:34:48;17.20;99.90
981;DHT22;479;53.514;9.994;2023-05-10T15:37:15;17.20;99.90
981;DHT22;479;53.514;9.994;2023-05-10T15:39:42;17.30;99.90
981;DHT22;479;53.514;9.994;2023-05-10T15:42:09;17.30;99.90
981;DHT22;479;53.514;9.994;2023-05-10T15:44:36;17.30;99.90
981;DHT22;479;53.514;9.994;2023-05-10T15:47:04;17.20;99.90
981;DHT22;479;53.514;9.994;2023-05-10T15:49:32;17.20;99.90
981;DHT22;479;53.514;9.994;2023-05-10T15:52:01;17.00;99.90
981;DHT22;479;53.514;9.994;2023-05-10T15:54:27;16.90;99.90
981;DHT22;479;53.514;9.994;2023-05-10T15:56:56;16.60;99.90
981;DHT22;479;53.514;9.994;2023-05-10T15:59:23;16.40;99.90
981;DHT22;479;53.514;9.994;2023-05-10T16:01:50;16.20;99.90
981;DHT22;479;53.514;9.994;2023-05-10T16:04:17;16.00;99.90
981;DHT22;479;53.514;9.994;2023-05-10T16:06:44;15.90;99.90
981;DHT22;479;53.514;9.994;2023-05-10T16:09:13;15.80;99.90
981;DHT22;479;53.514;9.994;2023-05-10T16:11:41;15.80;99.90
981;DHT22;479;53.514;9.994;2023-05-10T16:14:08;15.70;99.90
981;DHT22;479;53.514;9.994;2023-05-10T16:16:35;15.60;99.90
981;DHT22;479;53.514;9.994;2023-05-10T16:19:02;15.60;99.90
981;DHT22;479;53.514;9.994;2023-05-10T16:21:29;15.60;99.90
981;DHT22;479;53.514;9.994;2023-05-10T16:23:58;15.60;99.90
981;DHT22;479;53.514;9.994;2023-05-10T16:26:26;15.60;99.90
981;DHT22;479;53.514;9.994;2023-05-10T16:28:53;15.60;99.90
981;DHT22;479;53.514;9.994;2023-05-10T16:31:20;15.60;99.90
981;DHT22;479;53.514;9.994;2023-05-10T16:33:47;15.60;99.90
981;DHT22;479;53.514;9.994;2023-05-10T16:36:14;15.60;99.90
981;DHT22;479;53.514;9.994;2023-05-10T16:38:41;15.60;99.90
981;DHT22;479;53.514;9.994;2023-05-10T16:41:08;15.60;99.90
981;DHT22;479;53.514;9.994;2023-05-10T16:43:36;15.60;99.90
981;DHT22;479;53.514;9.994;2023-05-10T16:46:09;15.60;99.90
981;DHT22;479;53.514;9.994;2023-05-10T16:48:36;15.60;99.90
981;DHT22;479;53.514;9.994;2023-05-10T16:51:03;15.60;99.90